Time;durP1;ratioP1;P1;durP2;ratioP2;P2;SDS_P1;SDS_P2;PMS_P1;PMS_P2;Temp;Humidity;BMP_temperature;BMP_pressure;BME280_temperature;BME280_humidity;BME280_pressure;Samples;Min_cycle;Max_cycle;Signal;HPM_P1;HPM_P2
2023/04/27 00:02:22;;;;;;;2.70;1.33;;;;;;;23.09;39.56;99812.50;4345800;33;33442;-62
2023/04/27 00:04:50;;;;;;;3.35;1.30;;;;;;;23.07;39.58;99815.44;4345638;33;34072;-62
2023/04/27 00:07:18;;;;;;;4.62;1.85;;;;;;;23.08;39.57;99810.81;4345540;33;34150;-62
2023/04/27 00:09:46;;;;;;;4.20;1.35;;;;;;;23.06;39.59;99816.50;4345612;33;33416;-62
2023/04/27 00:12:13;;;;;;;5.90;1.30;;;;;;;23.06;39.62;99812.94;4345657;33;33617;-62
2023/04/27 00:14:41;;;;;;;2.28;1.42;;;;;;;23.07;39.64;99823.59;4345481;33;33679;-61
2023/04/27 00:17:08;;;;;;;5.32;1.33;;;;;;;23.06;39.68;99819.22;4331779;33;33398;-64
2023/04/27 00:19:36;;;;;;;3.87;1.30;;;;;;;23.06;39.73;99823.81;4345610;33;34403;-61
2023/04/27 00:22:03;;;;;;;6.20;1.50;;;;;;;23.06;39.73;99824.66;4345456;33;33186;-61
2023/04/27 00:24:31;;;;;;;4.97;1.58;;;;;;;23.07;39.73;99820.03;4345573;33;33557;-62
2023/04/27 00:26:59;;;;;;;2.03;1.12;;;;;;;23.05;39.75;99820.28;4330454;33;34482;-62
2023/04/27 00:29:26;;;;;;;4.07;1.37;;;;;;;23.06;39.74;99819.22;4345315;33;34836;-61
2023/04/27 00:31:54;;;;;;;3.00;1.30;;;;;;;23.06;39.77;99819.22;4345318;33;33663;-62
2023/04/27 00:34:22;;;;;;;4.45;1.45;;;;;;;23.05;39.82;99817.56;4346824;33;34197;-62
2023/04/27 00:36:50;;;;;;;2.58;1.40;;;;;;;23.05;39.82;99812.09;4347797;33;33550;-60
2023/04/27 00:39:19;;;;;;;5.70;1.30;;;;;;;23.05;39.84;99806.66;4347511;33;34118;-62
2023/04/27 00:41:47;;;;;;;4.90;1.35;;;;;;;23.06;39.81;99816.50;4347346;33;33401;-62
2023/04/27 00:44:22;;;;;;;7.95;1.50;;;;;;;23.06;39.83;99823.81;4341257;33;33798;-59
2023/04/27 00:46:50;;;;;;;2.47;1.30;;;;;;;23.06;39.76;99821.94;4347584;33;34038;-61
2023/04/27 00:49:21;;;;;;;4.50;1.60;;;;;;;23.06;39.70;99813.75;4347330;33;34039;-60
2023/04/27 00:51:48;;;;;;;9.43;1.95;;;;;;;23.05;39.75;99814.00;4331259;33;33150;-61
2023/04/27 00:54:18;;;;;;;4.45;1.27;;;;;;;23.05;39.79;99820.28;4341447;33;33769;-61
2023/04/27 00:56:49;;;;;;;8.27;1.30;;;;;;;23.03;39.84;99808.75;4347460;33;33793;-59
2023/04/27 00:59:17;;;;;;;3.00;1.60;;;;;;;23.02;39.82;99815.25;4347260;33;34436;-61
2023/04/27 01:01:45;;;;;;;5.55;1.65;;;;;;;23.03;39.83;99816.91;4347153;33;34536;-61
2023/04/27 01:04:13;;;;;;;4.57;1.50;;;;;;;23.02;39.85;99811.72;4347321;33;34110;-61
2023/04/27 01:06:41;;;;;;;5.65;1.85;;;;;;;23.03;39.84;99813.38;4347300;33;35484;-62
2023/04/27 01:09:09;;;;;;;5.72;1.50;;;;;;;23.02;39.85;99804.38;4347218;33;34157;-62
2023/04/27 01:11:37;;;;;;;2.95;1.30;;;;;;;23.02;39.86;99809.81;4347215;33;34310;-62
2023/04/27 01:14:05;;;;;;;4.82;1.40;;;;;;;23.02;39.89;99817.16;4347514;33;34112;-62
2023/04/27 01:16:33;;;;;;;5.25;1.37;;;;;;;23.01;39.91;99810.06;4346944;33;34027;-61
2023/04/27 01:19:01;;;;;;;4.43;1.70;;;;;;;23.01;39.88;99808.16;4347356;33;34489;-63
2023/04/27 01:21:29;;;;;;;5.28;1.70;;;;;;;23.01;39.90;99821.78;4347297;33;33894;-63
2023/04/27 01:23:57;;;;;;;5.22;1.70;;;;;;;23.01;39.88;99826.37;4347063;33;33664;-62
2023/04/27 01:26:25;;;;;;;3.35;1.62;;;;;;;23.00;39.87;99822.84;4347213;33;33931;-62
2023/04/27 01:28:53;;;;;;;2.40;1.23;;;;;;;22.99;39.87;99826.63;4347173;33;34784;-59
2023/04/27 01:31:20;;;;;;;3.83;1.42;;;;;;;22.98;39.90;99821.38;4347010;33;33308;-62
2023/04/27 01:33:48;;;;;;;10.95;1.50;;;;;;;22.98;39.93;99822.22;4347073;33;33731;-62
2023/04/27 01:36:16;;;;;;;3.47;1.33;;;;;;;22.98;39.99;99824.94;4347130;33;34668;-62
2023/04/27 01:38:43;;;;;;;4.37;1.30;;;;;;;22.98;39.98;99833.09;4346868;33;34399;-62
2023/04/27 01:41:12;;;;;;;3.72;1.25;;;;;;;22.97;39.98;99828.72;4333444;33;33822;-62
2023/04/27 01:43:42;;;;;;;3.03;1.60;;;;;;;22.97;40.01;99836.88;4347039;33;34750;-60
2023/04/27 01:46:11;;;;;;;3.65;1.20;;;;;;;22.97;40.07;99834.16;4346368;33;34775;-62
2023/04/27 01:48:41;;;;;;;2.92;1.35;;;;;;;22.97;40.09;99836.03;4347042;33;35201;-62
2023/04/27 01:51:10;;;;;;;;;;;;;;;22.98;40.09;99846.69;4347320;33;34678;-62
2023/04/27 01:53:37;;;;;;;3.78;1.55;;;;;;;23.07;39.89;99844.53;4346951;33;33438;-61
2023/04/27 01:56:05;;;;;;;4.28;1.60;;;;;;;23.00;40.02;99841.87;4347040;33;35138;-61
2023/04/27 01:58:33;;;;;;;3.80;1.55;;;;;;;22.97;40.08;99842.31;4346909;33;33924;-62
2023/04/27 02:01:00;;;;;;;3.55;1.27;;;;;;;22.97;40.05;99847.75;4332017;33;32880;-62
2023/04/27 02:03:28;;;;;;;3.85;1.45;;;;;;;22.97;40.07;99844.22;4347135;33;34628;-62
2023/04/27 02:05:56;;;;;;;3.10;1.40;;;;;;;22.96;40.09;99834.37;4346857;33;33975;-62
2023/04/27 02:08:23;;;;;;;4.22;1.40;;;;;;;22.95;40.15;99838.16;4331030;33;33620;-62
2023/04/27 02:10:51;;;;;;;5.25;1.33;;;;;;;22.96;40.21;99843.38;4344531;33;33788;-62
2023/04/27 02:13:18;;;;;;;3.55;1.40;;;;;;;22.96;40.21;99843.38;4347185;33;34025;-62
2023/04/27 02:15:46;;;;;;;4.28;1.23;;;;;;;22.97;40.18;99841.50;4346857;33;34405;-61
2023/04/27 02:18:14;;;;;;;3.75;1.40;;;;;;;22.96;40.17;99846.09;4346880;33;34868;-62
2023/04/27 02:20:42;;;;;;;5.07;1.50;;;;;;;22.98;40.14;99851.31;4330837;33;33534;-62
2023/04/27 02:23:10;;;;;;;3.05;1.10;;;;;;;22.96;40.15;99853.44;4346500;33;33981;-62
2023/04/27 02:25:41;;;;;;;4.03;1.35;;;;;;;22.95;40.21;99855.31;4346759;33;33647;-61
2023/04/27 02:28:09;;;;;;;4.90;1.50;;;;;;;22.95;40.21;99858.03;4346626;33;35051;-61
2023/04/27 02:30:37;;;;;;;3.53;1.60;;;;;;;22.94;40.21;99859.06;4346450;33;33843;-62
2023/04/27 02:33:05;;;;;;;2.47;1.45;;;;;;;22.95;40.20;99862.66;4345223;33;34362;-61
2023/04/27 02:35:32;;;;;;;2.03;1.25;;;;;;;22.95;40.20;99859.94;4346738;33;33891;-61
2023/04/27 02:38:00;;;;;;;4.12;1.30;;;;;;;22.95;40.22;99865.38;4346681;33;34910;-62
2023/04/27 02:40:27;;;;;;;3.87;1.40;;;;;;;22.94;40.23;99863.69;4346657;33;34120;-62
2023/04/27 02:42:56;;;;;;;5.22;1.45;;;;;;;22.94;40.24;99869.97;4346357;33;34702;-62
2023/04/27 02:45:24;;;;;;;2.20;0.90;;;;;;;22.94;40.24;99877.28;4346655;33;33863;-62
2023/04/27 02:47:51;;;;;;;2.60;1.45;;;;;;;22.92;40.24;99870.19;4346533;33;34986;-62
2023/04/27 02:50:19;;;;;;;5.03;1.20;;;;;;;22.92;40.25;99870.19;4346447;33;33676;-62
2023/04/27 02:52:47;;;;;;;3.83;1.30;;;;;;;22.92;40.25;99875.62;4346581;33;34196;-62
2023/04/27 02:55:15;;;;;;;6.32;1.80;;;;;;;22.91;40.25;99871.25;4346527;33;34172;-62
2023/04/27 02:57:43;;;;;;;3.50;1.50;;;;;;;22.91;40.26;99873.16;4345371;33;33970;-62
2023/04/27 03:00:11;;;;;;;3.62;1.35;;;;;;;22.91;40.30;99873.97;4346794;33;34464;-62
2023/04/27 03:02:39;;;;;;;3.92;1.42;;;;;;;22.91;40.31;99882.13;4346438;33;34833;-62
2023/04/27 03:05:07;;;;;;;4.03;1.60;;;;;;;22.91;40.31;99887.56;4346364;33;34112;-62
2023/04/27 03:07:35;;;;;;;4.62;1.35;;;;;;;22.90;40.33;99885.09;4346456;33;35004;-61
2023/04/27 03:10:03;;;;;;;2.95;1.20;;;;;;;22.91;40.36;99887.56;4346472;33;34284;-61
2023/04/27 03:12:31;;;;;;;4.00;1.42;;;;;;;22.91;40.35;99892.19;4346197;33;34651;-61
2023/04/27 03:14:59;;;;;;;3.20;1.40;;;;;;;22.91;40.36;99884.03;4346531;33;34044;-62
2023/04/27 03:17:27;;;;;;;2.10;1.20;;;;;;;22.90;40.37;99891.34;4346292;33;35052;-62
2023/04/27 03:19:55;;;;;;;3.45;1.40;;;;;;;22.90;40.36;99899.53;4346169;33;33451;-61
2023/04/27 03:22:23;;;;;;;2.70;1.50;;;;;;;22.90;40.38;99896.81;4346322;33;34052;-62
2023/04/27 03:24:50;;;;;;;3.33;1.25;;;;;;;22.89;40.42;99897.00;4346436;33;34036;-61
2023/04/27 03:27:18;;;;;;;14.73;2.12;;;;;;;22.90;40.44;99891.34;4346144;33;33873;-58
2023/04/27 03:29:46;;;;;;;2.22;1.17;;;;;;;22.91;40.43;99900.34;4346192;33;34479;-62
2023/04/27 03:32:13;;;;;;;5.47;1.55;;;;;;;22.89;40.43;99900.56;4346085;33;35422;-60
2023/04/27 03:34:42;;;;;;;4.78;1.62;;;;;;;22.90;40.42;99893.25;4346050;33;33760;-62
2023/04/27 03:37:09;;;;;;;3.55;1.48;;;;;;;22.89;40.41;99900.56;4346077;33;33991;-61
2023/04/27 03:39:37;;;;;;;4.18;1.40;;;;;;;22.89;40.44;99905.16;4345968;33;33633;-61
2023/04/27 03:42:05;;;;;;;4.85;1.60;;;;;;;22.89;40.48;99908.72;4346006;33;34948;-59
2023/04/27 03:44:33;;;;;;;3.42;1.30;;;;;;;22.88;40.49;99906.19;4345466;33;33673;-62
2023/04/27 03:47:01;;;;;;;2.58;1.65;;;;;;;22.88;40.52;99912.47;4343527;33;34989;-61
2023/04/27 03:49:29;;;;;;;3.20;1.20;;;;;;;22.88;40.52;99914.34;4345979;33;33735;-62
2023/04/27 03:51:56;;;;;;;5.12;1.30;;;;;;;22.86;40.53;99914.59;4345542;33;34701;-61
2023/04/27 03:54:24;;;;;;;5.05;1.30;;;;;;;22.88;40.52;99917.06;4345693;33;34871;-61
2023/04/27 03:56:52;;;;;;;3.33;1.33;;;;;;;22.87;40.53;99913.53;4345761;33;34986;-60
2023/04/27 03:59:20;;;;;;;5.15;1.60;;;;;;;22.87;40.53;99916.25;4345646;33;33500;-62
2023/04/27 04:01:48;;;;;;;3.55;1.20;;;;;;;22.87;40.52;99918.97;4345508;33;34339;-62
2023/04/27 04:04:15;;;;;;;11.07;1.80;;;;;;;22.88;40.44;99919.78;4339741;33;34068;-61
2023/04/27 04:06:43;;;;;;;5.97;2.05;;;;;;;22.88;40.51;99922.50;4345627;33;34107;-55
2023/04/27 04:09:11;;;;;;;5.70;1.37;;;;;;;22.89;40.42;99918.78;4346801;33;34612;-55
2023/04/27 04:11:39;;;;;;;5.95;1.70;;;;;;;22.88;39.93;99922.50;4347899;33;33860;-57
2023/04/27 04:14:08;;;;;;;5.30;1.55;;;;;;;22.87;39.68;99929.84;4347810;33;34656;-59
2023/04/27 04:16:35;;;;;;;5.37;1.50;;;;;;;22.86;39.53;99928.19;4347562;33;34715;-60
2023/04/27 04:19:03;;;;;;;5.82;1.65;;;;;;;22.84;39.49;99935.72;4347450;33;33415;-61
2023/04/27 04:21:31;;;;;;;4.62;1.42;;;;;;;22.82;39.46;99934.28;4347490;33;34704;-58
2023/04/27 04:23:58;;;;;;;6.82;1.50;;;;;;;22.82;39.40;99934.28;4347326;33;34822;-63
2023/04/27 04:26:26;;;;;;;4.70;1.62;;;;;;;22.81;39.38;99940.78;4347898;33;35095;-61
2023/04/27 04:28:56;;;;;;;6.22;1.50;;;;;;;22.79;39.33;99940.97;4347709;33;33713;-60
2023/04/27 04:31:23;;;;;;;8.48;1.65;;;;;;;22.77;39.32;99942.28;4347416;33;34112;-61
2023/04/27 04:33:51;;;;;;;4.80;1.62;;;;;;;22.77;39.25;99943.09;4347669;33;34149;-62
2023/04/27 04:36:20;;;;;;;2.47;1.48;;;;;;;22.77;39.21;99939.56;4346512;33;34250;-57
2023/04/27 04:38:50;;;;;;;3.73;1.20;;;;;;;22.75;39.18;99941.63;4345597;33;34264;-59
2023/04/27 04:41:18;;;;;;;3.28;1.37;;;;;;;22.75;39.14;99936.19;4345763;33;33985;-63
2023/04/27 04:43:48;;;;;;;4.68;1.62;;;;;;;22.74;39.12;99946.25;4345421;33;34878;-61
2023/04/27 04:46:16;;;;;;;4.82;1.60;;;;;;;22.74;39.10;99953.59;4345818;33;33788;-63
2023/04/27 04:48:43;;;;;;;3.60;1.45;;;;;;;22.73;39.08;99957.34;4329733;33;33331;-59
2023/04/27 04:51:11;;;;;;;2.62;1.20;;;;;;;22.72;39.06;99952.97;4345908;33;34414;-63
2023/04/27 04:53:38;;;;;;;9.63;1.80;;;;;;;22.70;39.03;99953.19;4346552;33;35210;-63
2023/04/27 04:56:13;;;;;;;4.25;1.60;;;;;;;22.70;39.00;99945.00;4347404;33;34195;-62
2023/04/27 04:58:40;;;;;;;3.47;1.23;;;;;;;22.69;38.99;99951.50;4347415;33;34454;-62
2023/04/27 05:01:08;;;;;;;4.15;1.42;;;;;;;22.67;38.97;99959.91;4347474;33;33671;-58
2023/04/27 05:03:36;;;;;;;2.92;1.35;;;;;;;22.67;38.97;99959.06;4347569;33;34121;-60
2023/04/27 05:06:04;;;;;;;2.72;1.30;;;;;;;22.67;38.95;99956.34;4347190;33;34318;-61
2023/04/27 05:08:32;;;;;;;3.47;1.37;;;;;;;22.66;38.92;99954.66;4347288;33;34544;-62
2023/04/27 05:10:59;;;;;;;3.22;1.80;;;;;;;22.66;38.91;99962.81;4347291;33;33712;-60
2023/04/27 05:13:27;;;;;;;3.60;1.30;;;;;;;22.65;38.88;99964.72;4347140;33;34466;-60
2023/04/27 05:15:54;;;;;;;4.90;1.65;;;;;;;22.65;38.89;99961.16;4347226;33;33677;-55
2023/04/27 05:18:22;;;;;;;3.50;1.55;;;;;;;22.64;38.88;99967.66;4347160;33;33663;-57
2023/04/27 05:20:49;;;;;;;5.32;1.45;;;;;;;22.64;38.91;99971.22;4346279;33;33701;-61
2023/04/27 05:23:17;;;;;;;3.50;1.42;;;;;;;22.64;38.93;99967.66;4347314;33;34900;-61
2023/04/27 05:25:44;;;;;;;2.72;1.10;;;;;;;22.64;38.92;99973.91;4347119;33;34929;-63
2023/04/27 05:28:12;;;;;;;2.97;1.33;;;;;;;22.65;38.87;99972.88;4347067;33;34475;-61
2023/04/27 05:30:41;;;;;;;2.20;1.20;;;;;;;22.66;38.86;99976.41;4347119;33;34757;-62
2023/04/27 05:33:08;;;;;;;4.78;1.50;;;;;;;22.66;38.86;99974.56;4344511;33;90305;-62
2023/04/27 05:35:36;;;;;;;5.07;1.40;;;;;;;22.67;38.86;99972.66;4346987;33;35000;-63
2023/04/27 05:38:04;;;;;;;3.83;1.25;;;;;;;22.67;38.85;99978.94;4347133;33;34459;-58
2023/04/27 05:40:31;;;;;;;10.77;1.70;;;;;;;22.69;38.85;99976.00;4346993;33;34912;-63
2023/04/27 05:43:02;;;;;;;2.20;1.25;;;;;;;22.70;38.84;99982.25;4346840;33;34575;-59
2023/04/27 05:45:29;;;;;;;3.50;1.30;;;;;;;22.71;38.85;99986.66;4346922;33;34308;-60
2023/04/27 05:47:57;;;;;;;4.90;1.90;;;;;;;22.71;38.84;99984.78;4347092;33;34658;-58
2023/04/27 05:50:24;;;;;;;4.28;1.35;;;;;;;22.73;38.84;99987.28;4346847;33;34821;-60
2023/04/27 05:52:52;;;;;;;4.93;1.35;;;;;;;22.73;38.85;99993.56;4346856;33;34020;-61
2023/04/27 05:55:20;;;;;;;2.42;1.20;;;;;;;22.73;38.87;99993.56;4346999;33;34222;-55
2023/04/27 05:57:47;;;;;;;4.87;1.55;;;;;;;22.75;38.86;99996.03;4346885;33;33757;-54
2023/04/27 06:00:31;;;;;;;3.05;1.62;;;;;;;22.74;38.84;99995.22;4346845;33;34707;-59
2023/04/27 06:02:58;;;;;;;4.00;1.55;;;;;;;22.75;38.83;100004.19;4346726;33;33882;-56
2023/04/27 06:05:26;;;;;;;4.43;1.45;;;;;;;22.75;38.84;100001.50;4346984;33;34331;-56
2023/04/27 06:07:54;;;;;;;2.10;1.10;;;;;;;22.75;38.87;99998.75;4347176;33;33758;-65
2023/04/27 06:10:22;;;;;;;2.28;1.30;;;;;;;22.75;38.87;100001.50;4342847;33;33653;-64
2023/04/27 06:12:49;;;;;;;2.22;1.10;;;;;;;22.75;38.88;100002.31;4337103;33;34089;-61
2023/04/27 06:15:17;;;;;;;7.65;1.48;;;;;;;22.75;38.86;100006.94;4331217;33;35000;-65
2023/04/27 06:17:44;;;;;;;7.22;3.70;;;;;;;22.75;38.82;100001.50;4331370;33;33421;-63
2023/04/27 06:20:12;;;;;;;8.45;6.43;;;;;;;22.74;38.75;100010.69;4330545;33;33524;-65
2023/04/27 06:22:39;;;;;;;9.73;6.65;;;;;;;22.74;38.63;100010.69;4332087;33;33864;-65
2023/04/27 06:25:07;;;;;;;6.43;4.90;;;;;;;22.72;38.55;100010.94;4331956;33;34135;-61
2023/04/27 06:27:35;;;;;;;6.87;6.18;;;;;;;22.73;38.48;100014.47;4332994;33;33357;-63
2023/04/27 06:30:03;;;;;;;8.63;6.45;;;;;;;22.71;38.26;100012.00;4332040;33;33539;-65
2023/04/27 06:32:32;;;;;;;8.80;6.55;;;;;;;22.70;38.05;100017.63;4331944;33;33745;-65
2023/04/27 06:34:59;;;;;;;7.18;5.30;;;;;;;22.70;37.82;100012.19;4331907;33;35108;-65
2023/04/27 06:37:26;;;;;;;9.90;5.62;;;;;;;22.67;37.72;100011.59;4332071;33;34475;-64
2023/04/27 06:39:55;;;;;;;8.55;5.85;;;;;;;22.66;37.55;100009.06;4331868;33;33688;-63
2023/04/27 06:42:22;;;;;;;7.40;5.10;;;;;;;22.66;37.37;100003.63;4331774;33;34163;-64
2023/04/27 06:44:53;;;;;;;8.90;5.78;;;;;;;22.64;37.21;100005.72;4332306;33;35040;-62
2023/04/27 06:47:21;;;;;;;7.15;4.90;;;;;;;22.64;37.09;100011.16;4346617;33;34586;-65
2023/04/27 06:49:49;;;;;;;6.45;4.50;;;;;;;22.63;36.86;100015.78;4330672;33;34827;-63
2023/04/27 06:52:17;;;;;;;7.12;4.43;;;;;;;22.61;36.80;100017.88;4346504;33;34558;-64
2023/04/27 06:54:44;;;;;;;8.00;4.15;;;;;;;22.60;36.73;100023.53;4346650;33;35032;-64
2023/04/27 06:57:12;;;;;;;10.10;3.97;;;;;;;22.59;36.59;100019.97;4346538;33;33853;-65
2023/04/27 06:59:39;;;;;;;6.87;4.45;;;;;;;22.59;36.51;100022.69;4346210;33;34935;-63
2023/04/27 07:02:07;;;;;;;5.90;4.10;;;;;;;22.58;36.45;100021.03;4346673;33;34546;-62
2023/04/27 07:04:36;;;;;;;7.12;4.10;;;;;;;22.58;36.35;100025.62;4346464;33;33800;-62
2023/04/27 07:07:04;;;;;;;7.35;3.55;;;;;;;22.58;36.27;100020.19;4346378;33;33775;-65
2023/04/27 07:09:32;;;;;;;4.70;3.17;;;;;;;22.58;36.16;100028.38;4346530;33;33595;-65
2023/04/27 07:12:00;;;;;;;5.37;3.28;;;;;;;22.56;36.08;100017.69;4346357;33;33695;-64
2023/04/27 07:14:27;;;;;;;7.15;3.33;;;;;;;22.56;36.00;100025.84;4333650;33;34842;-64
2023/04/27 07:16:55;;;;;;;5.47;2.97;;;;;;;22.56;35.91;100022.28;4316389;33;34447;-65
2023/04/27 07:19:22;;;;;;;5.72;3.15;;;;;;;22.54;35.85;100021.69;4331599;33;34286;-58
2023/04/27 07:21:50;;;;;;;4.87;2.80;;;;;;;22.54;35.80;100025.22;4331393;33;34170;-65
2023/04/27 07:24:19;;;;;;;7.80;3.12;;;;;;;22.53;35.73;100026.28;4331732;33;34871;-63
2023/04/27 07:26:46;;;;;;;5.68;3.08;;;;;;;22.53;35.71;100033.63;4331757;33;34375;-65
2023/04/27 07:29:16;;;;;;;4.43;2.80;;;;;;;22.52;35.56;100032.78;4331351;33;33879;-58
2023/04/27 07:31:54;;;;;;;6.65;3.00;;;;;;;22.51;35.46;100020.22;4331697;33;33998;-64
2023/04/27 07:34:22;;;;;;;6.20;2.92;;;;;;;22.52;35.28;100027.34;4331273;33;35056;-61
2023/04/27 07:36:52;;;;;;;4.62;2.45;;;;;;;22.51;35.23;100036.53;4331427;33;33868;-64
2023/04/27 07:39:21;;;;;;;5.10;3.00;;;;;;;22.51;35.19;100032.97;4331340;33;34514;-59
2023/04/27 07:41:49;;;;;;;4.85;2.70;;;;;;;22.50;35.13;100025.88;4338593;33;34052;-64
2023/04/27 07:44:17;;;;;;;5.93;2.53;;;;;;;22.51;35.07;100032.97;4332448;33;34637;-63
2023/04/27 07:46:48;;;;;;;5.62;2.33;;;;;;;22.49;34.93;100033.19;4333069;33;33870;-65
2023/04/27 07:49:15;;;;;;;4.25;2.05;;;;;;;22.48;34.90;100028.81;4340334;33;34033;-63
2023/04/27 07:51:43;;;;;;;3.20;2.20;;;;;;;22.47;34.70;100032.56;4334553;33;34932;-64
2023/04/27 07:54:11;;;;;;;5.28;2.67;;;;;;;22.47;34.64;100032.56;4333116;33;35490;-62
2023/04/27 07:56:41;;;;;;;5.22;2.33;;;;;;;22.47;34.55;100029.84;4333174;33;33510;-65
2023/04/27 07:59:09;;;;;;;4.47;2.40;;;;;;;22.46;34.48;100030.91;4333349;33;34180;-64
2023/04/27 08:01:37;;;;;;;5.37;2.40;;;;;;;22.46;34.41;100028.19;4332978;33;33833;-64
2023/04/27 08:04:05;;;;;;;4.10;2.25;;;;;;;22.46;34.30;100033.63;4332796;33;35131;-65
2023/04/27 08:06:33;;;;;;;4.65;2.22;;;;;;;22.46;34.24;100028.19;4333021;33;33684;-63
2023/04/27 08:09:03;;;;;;;4.97;2.20;;;;;;;22.45;34.14;100039.28;4347851;33;34702;-66
2023/04/27 08:11:31;;;;;;;4.82;2.22;;;;;;;22.46;34.04;100032.78;4331620;33;35240;-65
2023/04/27 08:13:58;;;;;;;5.65;2.58;;;;;;;22.44;34.02;100038.44;4346050;33;34326;-63
2023/04/27 08:16:25;;;;;;;5.62;2.28;;;;;;;22.45;33.97;100036.56;4347683;33;33495;-65
2023/04/27 08:18:53;;;;;;;5.28;2.25;;;;;;;22.43;33.93;100042.22;4320026;33;33618;-65
2023/04/27 08:21:21;;;;;;;4.87;2.28;;;;;;;22.42;33.92;100035.09;4347554;33;34028;-64
2023/04/27 08:23:48;;;;;;;4.18;2.30;;;;;;;22.41;33.83;100033.44;4347476;33;34346;-65
2023/04/27 08:26:16;;;;;;;4.00;2.12;;;;;;;22.41;33.76;100047.03;4347740;33;33439;-63
2023/04/27 08:28:44;;;;;;;6.62;1.98;;;;;;;22.40;33.76;100037.19;4347504;33;33670;-65
2023/04/27 08:31:11;;;;;;;3.60;1.98;;;;;;;22.40;33.70;100042.62;4347394;33;33897;-65
2023/04/27 08:33:39;;;;;;;5.07;2.47;;;;;;;22.39;33.58;100041.81;4347581;33;33990;-64
2023/04/27 08:36:07;;;;;;;4.70;2.40;;;;;;;22.39;33.50;100043.69;4335469;33;33293;-65
2023/04/27 08:38:34;;;;;;;4.50;2.00;;;;;;;22.39;33.41;100038.25;4329369;33;34689;-62
2023/04/27 08:41:02;;;;;;;4.32;1.90;;;;;;;22.37;33.35;100035.72;4347493;33;33874;-63
2023/04/27 08:43:50;;;;;;;4.18;2.10;;;;;;;22.37;33.23;100045.78;4347503;33;33856;-60
2023/04/27 08:46:22;;;;;;;3.08;1.83;;;;;;;22.37;33.15;100041.16;4347886;33;33833;-64
2023/04/27 08:48:50;;;;;;;5.70;2.00;;;;;;;22.37;33.17;100040.34;4347514;33;33946;-64
2023/04/27 08:51:18;;;;;;;5.72;2.15;;;;;;;22.36;33.21;100035.97;4347352;33;34500;-62
2023/04/27 08:53:50;;;;;;;3.92;1.90;;;;;;;22.36;33.12;100041.41;4347541;33;34271;-63
2023/04/27 08:56:18;;;;;;;4.55;2.00;;;;;;;22.35;33.17;100039.72;4346491;33;34539;-63
2023/04/27 08:58:46;;;;;;;4.37;2.05;;;;;;;22.36;33.09;100041.41;4331416;33;33849;-63
2023/04/27 09:01:13;;;;;;;4.40;1.92;;;;;;;22.36;32.98;100028.62;4347297;33;34047;-62
2023/04/27 09:03:41;;;;;;;5.57;1.80;;;;;;;22.36;32.93;100014.22;4347371;33;34859;-65
2023/04/27 09:06:09;;;;;;;3.40;1.95;;;;;;;22.37;32.85;100024.03;4345293;33;33638;-64
2023/04/27 09:08:43;;;;;;;4.28;1.77;;;;;;;22.37;32.88;100019.41;4332648;33;34771;-64
2023/04/27 09:11:15;;;;;;;5.97;1.85;;;;;;;22.39;32.92;100008.34;4332524;33;33918;-63
2023/04/27 09:13:44;;;;;;;3.75;1.80;;;;;;;22.40;32.94;100015.44;4332531;33;34918;-64
2023/04/27 09:16:13;;;;;;;3.85;1.62;;;;;;;22.41;32.99;100015.22;4332647;33;34166;-64
2023/04/27 09:18:42;;;;;;;5.03;1.95;;;;;;;22.43;33.05;100020.47;4332797;33;33874;-65
2023/04/27 09:21:09;;;;;;;3.60;1.70;;;;;;;22.46;33.10;100021.91;4332406;33;33783;-60
2023/04/27 09:23:43;;;;;;;10.23;1.77;;;;;;;22.47;33.18;100009.97;4346703;33;33855;-65
2023/04/27 09:26:18;;;;;;;5.78;2.00;;;;;;;22.47;33.21;100010.81;4347153;33;33785;-63
2023/04/27 09:28:47;;;;;;;4.05;1.60;;;;;;;22.48;33.21;100001.62;4347258;33;34000;-64
2023/04/27 09:31:15;;;;;;;6.10;1.80;;;;;;;22.48;33.20;100007.06;4336086;33;35028;-65
2023/04/27 09:33:43;;;;;;;3.47;1.90;;;;;;;22.47;33.19;100002.66;4332427;33;34266;-64
2023/04/27 09:36:10;;;;;;;5.25;2.10;;;;;;;22.49;33.15;100000.56;4332536;33;33321;-65
2023/04/27 09:38:38;;;;;;;5.28;1.90;;;;;;;22.49;33.12;100013.34;4332227;33;33493;-65
2023/04/27 09:41:05;;;;;;;3.87;1.60;;;;;;;22.50;33.12;100007.66;4318202;33;33702;-64
2023/04/27 09:43:33;;;;;;;6.15;1.90;;;;;;;22.50;33.10;100004.13;4316305;33;34117;-59
2023/04/27 09:46:02;;;;;;;5.62;1.80;;;;;;;22.49;33.04;99984.25;4330892;33;34481;-62
2023/04/27 09:48:30;;;;;;;6.18;2.15;;;;;;;22.48;33.13;99998.06;4316574;33;34565;-65
2023/04/27 09:50:58;;;;;;;4.22;1.55;;;;;;;22.50;33.09;100004.94;4342552;33;34071;-61
2023/04/27 09:53:42;;;;;;;4.65;1.60;;;;;;;22.48;33.09;99996.19;4347017;33;34341;-65
2023/04/27 09:56:35;;;;;;;3.78;1.58;;;;;;;22.47;33.13;100002.66;4333235;33;34621;-65
2023/04/27 09:59:27;;;;;;;4.65;1.40;;;;;;;22.48;33.19;99989.91;4322379;33;33794;-61
2023/04/27 10:01:56;;;;;;;6.22;2.00;;;;;;;22.49;33.30;99986.97;4346927;33;35029;-65
2023/04/27 10:04:31;;;;;;;3.05;1.48;;;;;;;22.47;33.36;99990.94;4319029;33;34231;-61
2023/04/27 10:07:00;;;;;;;6.60;1.95;;;;;;;22.46;33.39;99981.97;4331771;33;33818;-62
2023/04/27 10:09:52;;;;;;;4.30;1.85;;;;;;;22.47;33.35;99980.06;4347018;33;34926;-65
2023/04/27 10:12:20;;;;;;;6.90;1.77;;;;;;;22.46;33.42;99978.41;4341295;33;33847;-64
2023/04/27 10:14:48;;;;;;;4.43;1.80;;;;;;;22.46;33.42;99978.41;4331232;33;34902;-64
2023/04/27 10:17:16;;;;;;;5.80;1.80;;;;;;;22.45;33.41;99988.44;4336517;33;34549;-63
2023/04/27 10:20:04;;;;;;;2.72;1.50;;;;;;;22.44;33.37;99978.63;4316424;33;34004;-65
2023/04/27 10:22:42;;;;;;;5.28;1.80;;;;;;;22.46;33.33;99978.41;4327926;33;34016;-58
2023/04/27 10:25:13;;;;;;;5.95;1.80;;;;;;;22.44;33.32;99973.19;4332134;33;34064;-65
2023/04/27 10:27:41;;;;;;;5.80;1.70;;;;;;;22.42;33.27;99978.00;4332227;33;34411;-65
2023/04/27 10:30:10;;;;;;;6.70;1.80;;;;;;;22.43;33.22;99971.53;4332011;33;33779;-66
2023/04/27 10:32:48;;;;;;;4.25;1.73;;;;;;;22.43;33.22;99971.53;4332125;33;33794;-63
2023/04/27 10:35:17;;;;;;;7.00;1.85;;;;;;;22.44;33.14;99975.09;4319082;33;34828;-65
2023/04/27 10:37:46;;;;;;;4.03;1.60;;;;;;;22.46;33.16;99972.97;4316294;33;33582;-64
2023/04/27 10:40:16;;;;;;;4.97;2.10;;;;;;;22.43;33.23;99979.69;4331957;33;33697;-63
2023/04/27 10:42:44;;;;;;;;;;;;;;;22.44;33.26;99978.63;4332077;33;33886;-60
2023/04/27 10:45:14;;;;;;;5.10;1.80;;;;;;;22.53;33.17;99979.22;4337697;33;35046;-61
2023/04/27 10:47:43;;;;;;;4.32;1.52;;;;;;;22.46;33.25;99981.97;4346865;33;33324;-60
2023/04/27 10:50:12;;;;;;;4.87;1.75;;;;;;;22.41;33.29;99985.31;4346652;33;34557;-58
2023/04/27 10:52:43;;;;;;;3.60;1.60;;;;;;;22.42;33.29;99980.72;4346790;33;33660;-61
2023/04/27 10:55:18;;;;;;;5.72;1.70;;;;;;;22.42;33.32;99981.53;4346622;33;34623;-62
2023/04/27 10:57:49;;;;;;;4.20;1.62;;;;;;;22.43;33.37;99976.97;4346665;33;33531;-63
2023/04/27 11:00:27;;;;;;;5.20;1.90;;;;;;;22.43;33.43;99974.25;4346641;33;34062;-63
2023/04/27 11:02:56;;;;;;;5.45;1.92;;;;;;;22.44;33.48;99984.06;4346357;33;34731;-64
2023/04/27 11:05:28;;;;;;;4.43;2.08;;;;;;;22.44;32.30;99989.50;4346746;33;34381;-63
2023/04/27 11:08:06;;;;;;;5.78;1.95;;;;;;;22.40;31.04;99972.78;4346604;33;33468;-67
2023/04/27 11:10:34;;;;;;;6.53;1.80;;;;;;;22.39;31.55;99962.97;4346795;33;33929;-67
2023/04/27 11:13:12;;;;;;;8.30;2.47;;;;;;;22.38;32.20;99976.75;4331960;33;33916;-67
2023/04/27 11:16:00;;;;;;;4.93;2.10;;;;;;;22.37;32.42;99965.06;4344752;33;34863;-67
2023/04/27 11:18:32;;;;;;;5.90;1.75;;;;;;;22.40;32.43;99975.50;4331940;33;33648;-67
2023/04/27 11:21:12;;;;;;;5.68;1.60;;;;;;;22.37;32.43;99967.75;4346424;33;34032;-65
2023/04/27 11:23:40;;;;;;;7.22;1.95;;;;;;;22.39;32.43;99975.72;4346433;33;34113;-68
2023/04/27 11:26:11;;;;;;;5.95;1.95;;;;;;;22.36;32.49;99974.25;4346232;33;35289;-66
2023/04/27 11:28:39;;;;;;;3.87;1.67;;;;;;;22.36;32.58;99968.00;4346296;33;33321;-66
2023/04/27 11:31:07;;;;;;;6.62;1.80;;;;;;;22.35;32.62;99969.87;4346278;33;34142;-66
2023/04/27 11:33:35;;;;;;;8.15;2.60;;;;;;;22.36;32.69;99970.72;4346068;33;34364;-65
2023/04/27 11:36:03;;;;;;;6.45;1.90;;;;;;;22.36;32.72;99973.44;4346252;33;34309;-66
2023/04/27 11:38:33;;;;;;;6.45;2.22;;;;;;;22.37;32.78;99980.53;4346206;33;34397;-65
2023/04/27 11:41:05;;;;;;;5.00;1.73;;;;;;;22.36;32.84;99968.00;4346381;33;34763;-67